createdAt,value
2022-10-19T00:18:49.392Z,5.84
2022-10-19T00:33:49.633Z,5.75
2022-10-19T01:33:49.118Z,6.43
2022-10-19T01:48:49.051Z,6.65
2022-10-19T02:03:50.816Z,6.42
2022-10-19T02:18:49.086Z,6.17
2022-10-19T03:48:48.999Z,5.21
2022-10-19T04:03:49.221Z,6.3
2022-10-19T05:18:48.775Z,5.87
2022-10-19T05:33:49.459Z,8.4
2022-10-19T06:03:49.345Z,9.74
2022-10-19T06:18:49.472Z,11.24
2022-10-19T06:33:49.418Z,10.37
2022-10-19T06:48:49.074Z,17.07
2022-10-19T07:33:48.581Z,10.58
2022-10-19T07:48:49.111Z,4.99
2022-10-19T08:18:49.139Z,2.62
2022-10-19T08:33:49.260Z,3.13
2022-10-19T09:03:56.790Z,4.9
2022-10-19T09:18:48.909Z,4.08
2022-10-19T09:48:55.261Z,4.41
2022-10-19T10:05:46.670Z,3.79
2022-10-19T10:18:49.012Z,3.9
2022-10-19T10:33:49.154Z,4.17
2022-10-19T11:03:49.324Z,4.54
2022-10-19T11:18:49.578Z,4.82
2022-10-19T11:33:48.745Z,9.29
2022-10-19T12:18:49.042Z,7
2022-10-19T12:33:49.404Z,7.29
2022-10-19T13:03:49.271Z,9.16
2022-10-19T13:18:49.129Z,10.78
2022-10-19T13:33:48.943Z,11.69
2022-10-19T13:48:49.081Z,14.26
2022-10-19T14:03:49.006Z,14.93
2022-10-19T14:33:49.211Z,14.31
2022-10-19T15:03:49.108Z,14.67
2022-10-19T15:33:48.885Z,15.21
2022-10-19T15:48:52.315Z,16.81
2022-10-19T16:03:50.250Z,19.48
2022-10-19T16:18:49.050Z,17.78
2022-10-19T16:33:49.712Z,19.62
2022-10-19T16:48:48.598Z,15.29
2022-10-19T17:03:48.589Z,17.86
2022-10-19T17:18:48.729Z,15.05
2022-10-19T17:48:48.701Z,23.05
2022-10-19T18:18:48.864Z,20.62
2022-10-19T18:33:48.683Z,17.1
2022-10-19T18:48:49.045Z,18.5
2022-10-19T19:03:48.775Z,17.69
2022-10-19T19:18:48.993Z,17
2022-10-19T19:48:49.338Z,15.74
2022-10-19T20:03:51.075Z,8.67
2022-10-19T20:18:48.987Z,12.57
2022-10-19T20:48:49.810Z,17.06
2022-10-19T21:18:49.552Z,5.73
2022-10-19T21:33:49.334Z,7.58
2022-10-19T21:48:49.886Z,8.32
2022-10-19T22:03:49.675Z,7.58
2022-10-19T22:18:49.956Z,6.46
2022-10-19T22:33:50.130Z,5.58
2022-10-19T22:48:50.129Z,5.84
2022-10-19T23:03:48.943Z,5.4
2022-10-19T23:18:48.926Z,4.74
2022-10-19T23:33:48.743Z,4.23
2022-10-19T23:48:48.616Z,4.26
